Valleyfield Airport

CSD3 · Quebec, 加拿大

使用的METAR站距离机场23 NM。
罗盘
风向 的 风向 140° Valleyfield Airport 6/24
风: 6 kt, 2 beaufort


6 kt
改变
0 ft 6.000 12.000 18.000 24.000 30.000
Cloud Cloud Cloud Cloud
SCT 17.000
Cloud Cloud Cloud Cloud Cloud Cloud
BKN 25.000
METAR CYUL 211800Z 14006KT 30SM SCT170 BKN250 03/M07 A3024 RMK AC3CI4 SLP245

METAR Valleyfield Airport - CSD3

Valleyfield Airport是,加拿大中的小机场。 该机场位于纬度45,20893和经度-74,14036。 该机场有一条跑道: 6/24. 该机场的伪ICAO代码为CSD3。 机场在Montreal FIR中。

该航空气象观测是针对蒙特利尔皮埃尔·埃利奥特·特鲁多国际机场在2024年2月21日 13:00, 当地时间进行的。

机场观察

风向为140°,速度为6 kt。

可见度为30 mi。

有疏云,零星散落的云朵在17.000 ft的高度 和 碎云在25.000 ft的高度。 破损或更高的上限为25.000 ft。

温度为3 °C,阵风为-2 °C。 露点为-7 °C,相对湿度为48%。 海平面上的气压为30,24 inHg (QNH)。

白天

今天,太阳从06:48升起,在17:31降落。 这适用于Valleyfield Airport,世界夏令时可能有所不同。 当地时间与世界标准时间之间的时差为-5 小时。 当前,没有夏令时有效。

公司介绍

我们没有关于这个机场的公司信息。

体会

到Vliegles.nl去找飞行课程,跳伞和其他飞行体验。 浏览页面,了解Valleyfield Airport附近所有可用的活动。 你也可以使用搜索功能来寻找你所在地附近的特定飞行课程、跳伞或其他飞行体验。

跑道

Id 标题 侧风 逆风 侧风 %
6/24 050°-230° 6 kt 100 %

逆风成分最大的方向会被突出显示,并用于横风计算。 这并不一定意味着这个方向在使用。

乌云

17.000 ft SCT 疏云,零星散落的云朵
25.000 ft BKN 碎云

温度 & 天气

温度 3 °C
露点 -7 °C
相对湿度 48%
风寒 -2 °C
Kp-index 0 (0-9)

评论

SLP245海平面压力为30,25 inHg (30,25 inHg)
AC3CI4

白天

日出
06:47
中午
12:08
日落
17:29 (4:07)

小工具

你想在你的网站上有一个关于Valleyfield Airport的当前航空天气(METAR)的小部件吗?

显示HTML代码
?>